createdAt,value
2023-03-06T00:01:11.451Z,99.90
2023-03-06T00:03:40.172Z,99.90
2023-03-06T00:06:09.115Z,99.90
2023-03-06T00:08:37.630Z,99.90
2023-03-06T00:11:06.481Z,99.90
2023-03-06T00:13:36.314Z,99.90
2023-03-06T00:16:05.552Z,99.90
2023-03-06T00:18:34.082Z,99.90
2023-03-06T00:21:02.553Z,99.90
2023-03-06T00:23:30.997Z,99.90
2023-03-06T00:25:59.666Z,99.90
2023-03-06T00:28:30.982Z,99.90
2023-03-06T00:31:01.578Z,99.90
2023-03-06T00:33:30.050Z,99.90
2023-03-06T00:35:58.586Z,99.90
2023-03-06T00:38:28.640Z,99.90
2023-03-06T00:40:57.047Z,99.90
2023-03-06T00:43:25.482Z,99.90
2023-03-06T00:45:53.976Z,99.90
2023-03-06T00:48:24.047Z,99.90
2023-03-06T00:50:52.471Z,99.90
2023-03-06T00:53:20.902Z,99.90
2023-03-06T00:55:49.379Z,99.90
2023-03-06T00:58:17.837Z,99.90
2023-03-06T01:00:46.689Z,99.90
2023-03-06T01:03:15.301Z,99.90
2023-03-06T01:05:45.422Z,99.90
2023-03-06T01:08:13.913Z,99.90
2023-03-06T01:10:42.570Z,99.90
2023-03-06T01:13:11.135Z,99.90
2023-03-06T01:15:39.859Z,99.90
2023-03-06T01:18:09.495Z,99.90
2023-03-06T01:20:38.314Z,99.90
2023-03-06T01:23:08.389Z,99.90
2023-03-06T01:25:37.019Z,99.90
2023-03-06T01:28:05.832Z,99.90
2023-03-06T01:30:34.299Z,99.90
2023-03-06T01:33:02.750Z,99.90
2023-03-06T01:35:31.308Z,99.90
2023-03-06T01:37:59.839Z,99.90
2023-03-06T01:40:32.753Z,99.90
2023-03-06T01:43:10.743Z,99.90
2023-03-06T01:46:24.971Z,99.90
2023-03-06T01:48:57.767Z,99.90
2023-03-06T01:51:30.343Z,99.90
2023-03-06T01:54:01.117Z,99.90
2023-03-06T01:56:31.077Z,99.90
2023-03-06T01:58:59.986Z,99.90
2023-03-06T02:01:29.004Z,99.90
2023-03-06T02:03:57.758Z,99.90
2023-03-06T02:06:26.458Z,99.90
2023-03-06T02:08:55.717Z,99.90
2023-03-06T02:11:25.875Z,99.90
2023-03-06T02:13:56.386Z,99.90
2023-03-06T02:16:28.405Z,99.90
2023-03-06T02:18:57.960Z,99.90
2023-03-06T02:21:30.448Z,99.90
2023-03-06T02:24:25.704Z,99.90
2023-03-06T02:26:57.171Z,99.90
2023-03-06T02:29:29.796Z,99.90
2023-03-06T02:31:58.606Z,99.90
2023-03-06T02:35:00.427Z,99.90
2023-03-06T02:37:30.595Z,99.90
2023-03-06T02:40:09.484Z,99.90
2023-03-06T02:42:39.654Z,99.90
2023-03-06T02:45:11.848Z,99.90
2023-03-06T02:47:40.489Z,99.90
2023-03-06T02:50:10.474Z,99.90
2023-03-06T02:52:38.918Z,99.90
2023-03-06T02:55:09.052Z,99.90
2023-03-06T02:57:38.851Z,99.90
2023-03-06T03:00:09.266Z,99.90
2023-03-06T03:02:38.093Z,99.90
2023-03-06T03:05:07.853Z,99.90
2023-03-06T03:07:36.516Z,99.90
2023-03-06T03:10:08.645Z,99.90
2023-03-06T03:12:38.553Z,99.90
2023-03-06T03:15:09.715Z,99.90
2023-03-06T03:17:38.824Z,99.90
2023-03-06T03:20:11.770Z,99.90
2023-03-06T03:22:40.851Z,99.90
2023-03-06T03:25:10.654Z,99.90
2023-03-06T03:27:40.450Z,99.90
2023-03-06T03:30:11.203Z,99.90
2023-03-06T03:32:39.748Z,99.90
2023-03-06T03:35:10.439Z,99.90
2023-03-06T03:37:39.673Z,99.90
2023-03-06T03:40:10.957Z,99.90
2023-03-06T03:42:41.016Z,99.90
2023-03-06T03:45:10.604Z,99.90
2023-03-06T03:47:39.103Z,99.90
2023-03-06T03:50:09.317Z,99.90
2023-03-06T03:52:37.996Z,99.90
2023-03-06T03:55:08.155Z,99.90
2023-03-06T03:57:36.602Z,99.90
2023-03-06T04:00:08.205Z,99.90
2023-03-06T04:02:36.871Z,99.90
2023-03-06T04:05:06.214Z,99.90
2023-03-06T04:07:34.690Z,99.90
2023-03-06T04:10:03.150Z,99.90
2023-03-06T04:12:31.630Z,99.90
2023-03-06T04:15:00.159Z,99.90
2023-03-06T04:17:29.985Z,99.90
2023-03-06T04:19:58.616Z,99.90
2023-03-06T04:22:27.108Z,99.90
2023-03-06T04:24:55.660Z,99.90
2023-03-06T04:27:24.143Z,99.90
2023-03-06T04:29:56.244Z,99.90
2023-03-06T04:32:25.122Z,99.90
2023-03-06T04:34:54.996Z,99.90
2023-03-06T04:37:26.724Z,99.90
2023-03-06T04:39:55.643Z,99.90
2023-03-06T04:42:24.951Z,99.90
2023-03-06T04:44:53.800Z,99.90
2023-03-06T04:47:22.285Z,99.90
2023-03-06T04:49:51.108Z,99.90
2023-03-06T04:52:20.927Z,99.90
2023-03-06T04:54:49.396Z,99.90
2023-03-06T04:57:17.866Z,99.90
2023-03-06T04:59:46.321Z,99.90
2023-03-06T05:02:14.903Z,99.90
2023-03-06T05:04:43.566Z,99.90
2023-03-06T05:07:12.457Z,99.90
2023-03-06T05:09:42.241Z,99.90
2023-03-06T05:12:10.695Z,99.90
2023-03-06T05:14:39.379Z,99.90
2023-03-06T05:17:08.177Z,99.90
2023-03-06T05:19:36.663Z,99.90
2023-03-06T05:22:05.231Z,99.90
2023-03-06T05:24:33.708Z,99.90
2023-03-06T05:27:03.760Z,99.90
2023-03-06T05:32:01.243Z,99.90
2023-03-06T05:34:29.874Z,99.90
2023-03-06T05:36:58.566Z,99.90
2023-03-06T05:39:29.559Z,99.90
2023-03-06T05:41:58.214Z,99.90
2023-03-06T05:44:33.443Z,99.90
2023-03-06T05:47:02.935Z,99.90
2023-03-06T05:49:35.238Z,99.90
2023-03-06T05:52:06.455Z,99.90
2023-03-06T05:54:37.902Z,99.90
2023-03-06T05:57:07.134Z,99.90
2023-03-06T05:59:37.012Z,99.90
2023-03-06T06:02:05.663Z,99.90
2023-03-06T06:04:34.270Z,99.90
2023-03-06T06:07:03.076Z,99.90
2023-03-06T06:09:31.762Z,99.90
2023-03-06T06:12:03.696Z,99.90
2023-03-06T06:14:36.285Z,99.90
2023-03-06T06:17:05.631Z,99.90
2023-03-06T06:19:34.352Z,99.90
2023-03-06T06:22:03.878Z,99.90
2023-03-06T06:24:33.674Z,99.90
2023-03-06T06:27:03.969Z,99.90
2023-03-06T06:29:33.033Z,99.90
2023-03-06T06:32:03.077Z,99.90
2023-03-06T06:34:31.991Z,99.90
2023-03-06T06:37:00.441Z,99.90
2023-03-06T06:39:29.047Z,99.90
2023-03-06T06:42:20.188Z,99.90
2023-03-06T06:44:46.071Z,99.90
2023-03-06T06:47:25.166Z,99.90
2023-03-06T06:49:55.411Z,99.90
2023-03-06T06:52:25.103Z,99.90
2023-03-06T06:54:54.195Z,99.90
2023-03-06T06:57:22.874Z,99.90
2023-03-06T06:59:53.387Z,99.90
2023-03-06T07:02:24.340Z,99.90
2023-03-06T07:05:03.774Z,99.90
2023-03-06T07:07:35.432Z,99.90
2023-03-06T07:10:05.577Z,99.90
2023-03-06T07:12:35.209Z,99.90
2023-03-06T07:15:04.926Z,99.90
2023-03-06T07:17:34.924Z,99.90
2023-03-06T07:20:05.392Z,99.90
2023-03-06T07:22:41.542Z,99.90
2023-03-06T07:28:04.292Z,99.90
2023-03-06T07:30:34.866Z,99.90
2023-03-06T07:33:04.756Z,99.90
2023-03-06T07:35:34.295Z,99.90
2023-03-06T07:38:03.341Z,99.90
2023-03-06T07:40:31.818Z,99.90
2023-03-06T07:43:16.907Z,99.90
2023-03-06T07:45:48.051Z,99.90
2023-03-06T07:48:17.857Z,99.90
2023-03-06T07:50:50.338Z,99.90
2023-03-06T07:53:18.764Z,99.90
2023-03-06T07:55:47.169Z,99.90
2023-03-06T07:58:16.222Z,99.90
2023-03-06T08:00:44.771Z,99.90
2023-03-06T08:03:14.873Z,99.90
2023-03-06T08:05:45.541Z,99.90
2023-03-06T08:08:14.179Z,99.90
2023-03-06T08:10:42.594Z,99.90
2023-03-06T08:13:11.045Z,99.90
2023-03-06T08:15:40.545Z,99.90
2023-03-06T08:18:08.966Z,99.90
2023-03-06T08:20:37.911Z,99.90
2023-03-06T08:23:07.719Z,99.90
2023-03-06T08:25:36.169Z,99.90
2023-03-06T08:28:04.705Z,99.90
2023-03-06T08:30:33.521Z,99.90
2023-03-06T08:33:02.132Z,99.90
2023-03-06T08:35:30.587Z,99.90
2023-03-06T08:37:59.001Z,99.90
2023-03-06T08:40:31.996Z,99.90
2023-03-06T08:43:00.440Z,99.90
2023-03-06T08:45:28.869Z,99.90
2023-03-06T08:47:57.423Z,99.90
2023-03-06T08:50:25.826Z,99.90
2023-03-06T08:52:54.257Z,99.90
2023-03-06T08:55:22.766Z,99.90
2023-03-06T08:57:52.605Z,99.90
2023-03-06T09:00:21.656Z,99.90
2023-03-06T09:02:50.077Z,99.90
2023-03-06T09:05:18.627Z,99.90
2023-03-06T09:07:47.040Z,99.90
2023-03-06T09:10:19.024Z,99.90
2023-03-06T09:12:50.905Z,99.90
2023-03-06T09:15:24.306Z,99.90
2023-03-06T09:17:54.225Z,99.90
2023-03-06T09:20:23.539Z,99.90
2023-03-06T09:22:51.980Z,99.90
2023-03-06T09:25:23.339Z,99.90
2023-03-06T09:28:08.612Z,99.90
2023-03-06T09:30:41.785Z,99.90
2023-03-06T09:33:10.202Z,99.90
2023-03-06T09:35:44.623Z,99.90
2023-03-06T09:38:13.143Z,99.90
2023-03-06T09:41:01.207Z,99.90
2023-03-06T09:43:35.431Z,99.90
2023-03-06T09:46:20.224Z,99.90
2023-03-06T09:49:10.273Z,99.90
2023-03-06T09:51:58.616Z,99.90
2023-03-06T09:54:37.209Z,99.90
2023-03-06T09:57:09.949Z,99.90
2023-03-06T09:59:50.222Z,99.90
2023-03-06T10:02:29.269Z,99.90
2023-03-06T10:05:04.152Z,99.90
2023-03-06T10:07:45.270Z,99.90
2023-03-06T10:10:22.196Z,99.90
2023-03-06T10:13:03.978Z,99.90
2023-03-06T10:15:36.238Z,99.90
2023-03-06T10:18:06.872Z,99.90
2023-03-06T10:20:42.681Z,99.90
2023-03-06T10:23:25.013Z,99.90
2023-03-06T10:26:02.251Z,99.90
2023-03-06T10:28:35.527Z,99.90
2023-03-06T10:31:12.263Z,99.90
2023-03-06T10:33:55.907Z,99.90
2023-03-06T10:36:27.235Z,99.90
2023-03-06T10:38:58.034Z,99.90
2023-03-06T10:41:29.733Z,99.90
2023-03-06T10:44:23.498Z,99.70
2023-03-06T10:46:55.356Z,99.60
2023-03-06T10:49:36.965Z,98.30
2023-03-06T10:52:20.385Z,98.50
2023-03-06T10:54:49.397Z,99.90
2023-03-06T10:57:27.461Z,99.90
2023-03-06T10:59:58.205Z,99.90
2023-03-06T11:02:31.760Z,99.90
2023-03-06T11:05:03.682Z,99.90
2023-03-06T11:07:34.318Z,99.90
2023-03-06T11:10:12.578Z,99.90
2023-03-06T11:12:43.788Z,99.90
2023-03-06T11:15:22.736Z,99.90
2023-03-06T11:17:59.141Z,99.90
2023-03-06T11:20:48.499Z,95.40
2023-03-06T11:23:21.619Z,96.30
2023-03-06T11:25:56.450Z,96.30
2023-03-06T11:28:30.710Z,96.80
2023-03-06T11:31:05.195Z,97.70
2023-03-06T11:33:42.576Z,98.00
2023-03-06T11:36:17.539Z,97.50
2023-03-06T11:38:50.886Z,96.70
2023-03-06T11:41:33.675Z,96.10
2023-03-06T11:44:13.878Z,93.90
2023-03-06T11:46:45.748Z,94.50
2023-03-06T11:49:24.837Z,92.70
2023-03-06T11:51:57.715Z,93.70
2023-03-06T11:54:26.503Z,94.20
2023-03-06T11:56:59.706Z,92.60
2023-03-06T11:59:48.615Z,92.20
2023-03-06T12:02:34.637Z,90.60
2023-03-06T12:05:28.253Z,91.50
2023-03-06T12:08:16.205Z,92.40
2023-03-06T12:10:51.835Z,92.90
2023-03-06T12:13:37.021Z,88.50
2023-03-06T12:16:27.025Z,86.10
2023-03-06T12:19:08.702Z,83.40
2023-03-06T12:21:49.959Z,82.90
2023-03-06T12:24:50.234Z,86.40
2023-03-06T12:27:25.962Z,85.00
2023-03-06T12:30:17.171Z,84.70
2023-03-06T12:32:54.033Z,84.70
2023-03-06T12:35:58.218Z,90.30
2023-03-06T12:38:48.812Z,90.20
2023-03-06T12:41:33.869Z,84.90
2023-03-06T12:44:49.469Z,82.60
2023-03-06T12:47:23.110Z,85.80
2023-03-06T12:49:57.578Z,86.80
2023-03-06T12:52:30.686Z,88.60
2023-03-06T12:55:02.537Z,85.50
2023-03-06T12:57:32.321Z,85.40
2023-03-06T13:00:00.844Z,87.50
2023-03-06T13:02:58.409Z,89.50
2023-03-06T13:05:59.034Z,90.10
2023-03-06T13:09:12.557Z,90.00
2023-03-06T13:12:16.901Z,89.10
2023-03-06T13:15:01.555Z,91.00
2023-03-06T13:17:40.660Z,88.80
2023-03-06T13:20:43.053Z,90.20
2023-03-06T13:23:52.248Z,88.90
2023-03-06T13:27:00.173Z,89.60
2023-03-06T13:30:21.923Z,87.40
2023-03-06T13:32:52.786Z,90.80
2023-03-06T13:35:56.000Z,91.30
2023-03-06T13:38:38.343Z,92.30
2023-03-06T13:41:37.665Z,94.00
2023-03-06T13:44:51.095Z,94.20
2023-03-06T13:48:06.773Z,95.30
2023-03-06T13:50:40.759Z,93.00
2023-03-06T13:54:14.382Z,90.90
2023-03-06T13:57:17.485Z,93.50
2023-03-06T14:00:35.923Z,93.00
2023-03-06T14:03:57.562Z,90.20
2023-03-06T14:06:54.086Z,91.60
2023-03-06T14:09:30.148Z,92.70
2023-03-06T14:12:06.813Z,89.00
2023-03-06T14:14:43.935Z,89.70
2023-03-06T14:17:25.663Z,89.00
2023-03-06T14:19:57.567Z,88.70
2023-03-06T14:22:26.895Z,88.50
2023-03-06T14:25:06.128Z,90.60
2023-03-06T14:27:45.448Z,91.20
2023-03-06T14:30:17.205Z,91.10
2023-03-06T14:32:46.306Z,90.60
2023-03-06T14:35:29.619Z,90.20
2023-03-06T14:38:02.376Z,90.00
2023-03-06T14:40:35.999Z,90.80
2023-03-06T14:43:21.765Z,90.50
2023-03-06T14:45:56.272Z,90.10
2023-03-06T14:48:27.028Z,90.50
2023-03-06T14:50:58.325Z,90.90
2023-03-06T14:53:31.230Z,91.30
2023-03-06T14:56:05.050Z,91.50
2023-03-06T14:58:39.547Z,92.20
2023-03-06T15:01:11.288Z,92.60
2023-03-06T15:03:46.860Z,93.20
2023-03-06T15:06:21.633Z,94.20
2023-03-06T15:08:58.840Z,93.20
2023-03-06T15:11:27.392Z,93.50
2023-03-06T15:14:03.789Z,94.80
2023-03-06T15:16:32.890Z,95.20
2023-03-06T15:19:03.561Z,94.90
2023-03-06T15:21:37.572Z,95.60
2023-03-06T15:24:32.764Z,95.20
2023-03-06T15:27:04.361Z,95.60
2023-03-06T15:29:33.108Z,96.10
2023-03-06T15:32:32.268Z,93.90
2023-03-06T15:35:27.334Z,94.50
2023-03-06T15:37:57.657Z,95.80
2023-03-06T15:40:28.867Z,94.40
2023-03-06T15:42:58.153Z,93.60
2023-03-06T15:45:29.656Z,93.00
2023-03-06T15:47:58.084Z,93.50
2023-03-06T15:50:28.812Z,94.00
2023-03-06T15:52:58.694Z,93.90
2023-03-06T15:55:27.567Z,93.30
2023-03-06T15:57:59.741Z,93.50
2023-03-06T16:00:30.899Z,93.80
2023-03-06T16:03:00.199Z,93.90
2023-03-06T16:05:29.910Z,93.80
2023-03-06T16:08:00.110Z,94.00
2023-03-06T16:10:31.874Z,93.80
2023-03-06T16:13:04.504Z,95.30
2023-03-06T16:15:38.788Z,93.50
2023-03-06T16:18:07.807Z,95.10
2023-03-06T16:20:36.623Z,93.80
2023-03-06T16:23:10.291Z,95.00
2023-03-06T16:25:41.020Z,95.40
2023-03-06T16:28:15.527Z,94.20
2023-03-06T16:30:46.060Z,94.10
2023-03-06T16:33:15.368Z,94.30
2023-03-06T16:35:46.827Z,95.00
2023-03-06T16:38:16.779Z,95.00
2023-03-06T16:40:45.232Z,95.50
2023-03-06T16:43:16.166Z,95.70
2023-03-06T16:45:45.093Z,94.50
2023-03-06T16:48:20.864Z,95.30
2023-03-06T16:50:49.372Z,95.50
2023-03-06T16:53:19.910Z,96.00
2023-03-06T16:55:48.583Z,96.90
2023-03-06T16:58:17.242Z,97.60
2023-03-06T17:00:45.685Z,98.00
2023-03-06T17:03:14.098Z,98.00
2023-03-06T17:05:44.068Z,98.60
2023-03-06T17:08:12.847Z,99.90
2023-03-06T17:10:44.081Z,99.90
2023-03-06T17:13:12.553Z,99.90
2023-03-06T17:15:41.330Z,99.90
2023-03-06T17:18:09.754Z,99.90
2023-03-06T17:20:38.573Z,99.90
2023-03-06T17:23:06.969Z,99.90
2023-03-06T17:25:35.417Z,99.90
2023-03-06T17:28:05.291Z,99.90
2023-03-06T17:30:33.705Z,99.90
2023-03-06T17:33:02.742Z,99.90
2023-03-06T17:35:31.439Z,99.90
2023-03-06T17:38:00.142Z,99.90
2023-03-06T17:40:28.657Z,99.90
2023-03-06T17:42:57.257Z,99.90
2023-03-06T17:45:29.039Z,99.90
2023-03-06T17:47:57.812Z,99.90
2023-03-06T17:50:26.285Z,99.90
2023-03-06T17:52:54.722Z,99.90
2023-03-06T17:55:23.202Z,99.90
2023-03-06T17:57:53.400Z,99.90
2023-03-06T18:00:23.790Z,99.90
2023-03-06T18:02:53.876Z,99.90
2023-03-06T18:05:22.579Z,99.90
2023-03-06T18:07:51.010Z,99.90
2023-03-06T18:10:19.568Z,99.90
2023-03-06T18:12:48.224Z,99.90
2023-03-06T18:15:17.311Z,99.90
2023-03-06T18:17:46.440Z,99.90
2023-03-06T18:20:16.337Z,99.90
2023-03-06T18:22:44.785Z,99.90
2023-03-06T18:25:13.226Z,99.90
2023-03-06T18:27:41.637Z,99.90
2023-03-06T18:30:12.055Z,99.90
2023-03-06T18:32:40.555Z,99.90
2023-03-06T18:35:10.622Z,99.90
2023-03-06T18:37:40.435Z,99.90
2023-03-06T18:40:11.064Z,99.90
2023-03-06T18:42:39.483Z,99.90
2023-03-06T18:45:09.754Z,99.90
2023-03-06T18:47:38.178Z,99.90
2023-03-06T18:50:08.125Z,99.90
2023-03-06T18:52:36.692Z,99.90
2023-03-06T18:55:07.640Z,99.90
2023-03-06T18:57:36.269Z,99.90
2023-03-06T19:00:05.887Z,99.90
2023-03-06T19:02:34.593Z,99.90
2023-03-06T19:05:03.066Z,99.90
2023-03-06T19:07:31.697Z,99.90
2023-03-06T19:10:00.120Z,99.90
2023-03-06T19:12:29.952Z,99.90
2023-03-06T19:15:01.462Z,99.90
2023-03-06T19:17:31.447Z,99.90
2023-03-06T19:19:59.877Z,99.90
2023-03-06T19:22:28.299Z,99.90
2023-03-06T19:24:56.739Z,99.90
2023-03-06T19:27:25.387Z,99.90
2023-03-06T19:29:55.167Z,99.90
2023-03-06T19:32:23.747Z,99.90
2023-03-06T19:34:52.611Z,99.90
2023-03-06T19:37:21.103Z,99.90
2023-03-06T19:39:49.751Z,99.90
2023-03-06T19:42:18.436Z,99.90
2023-03-06T19:47:37.541Z,99.90
2023-03-06T19:50:07.232Z,99.90
2023-03-06T19:52:39.039Z,99.90
2023-03-06T19:55:09.690Z,99.90
2023-03-06T19:57:38.161Z,99.90
2023-03-06T20:00:08.124Z,99.90
2023-03-06T20:02:38.183Z,99.90
2023-03-06T20:05:09.384Z,99.90
2023-03-06T20:07:38.143Z,99.90
2023-03-06T20:10:07.472Z,99.90
2023-03-06T20:12:36.649Z,99.90
2023-03-06T20:15:06.157Z,99.90
2023-03-06T20:17:35.587Z,99.90
2023-03-06T20:20:07.118Z,99.90
2023-03-06T20:22:35.567Z,99.90
2023-03-06T20:25:04.156Z,99.90
2023-03-06T20:27:32.797Z,99.90
2023-03-06T20:30:01.490Z,99.90
2023-03-06T20:32:30.215Z,99.90
2023-03-06T20:34:58.674Z,99.90
2023-03-06T20:37:28.755Z,99.90
2023-03-06T20:39:57.429Z,99.90
2023-03-06T20:42:25.841Z,99.90
2023-03-06T20:44:54.504Z,99.90
2023-03-06T20:47:22.942Z,99.90
2023-03-06T20:49:51.608Z,99.90
2023-03-06T20:52:20.059Z,99.90
2023-03-06T20:54:50.089Z,99.90
2023-03-06T20:57:18.532Z,99.90
2023-03-06T20:59:47.217Z,99.90
2023-03-06T21:02:15.946Z,99.90
2023-03-06T21:04:44.768Z,99.90
2023-03-06T21:07:13.224Z,99.90
2023-03-06T21:09:41.659Z,99.90
2023-03-06T21:12:11.468Z,99.90
2023-03-06T21:14:40.151Z,99.90
2023-03-06T21:17:08.608Z,99.90
2023-03-06T21:19:38.446Z,99.90
2023-03-06T21:22:06.871Z,99.90
2023-03-06T21:24:35.336Z,99.90
2023-03-06T21:27:04.308Z,99.90
2023-03-06T21:29:34.111Z,99.90
2023-03-06T21:32:02.754Z,99.90
2023-03-06T21:34:31.271Z,99.90
2023-03-06T21:36:59.737Z,99.90
2023-03-06T21:39:28.228Z,99.90
2023-03-06T21:41:56.663Z,99.90
2023-03-06T21:44:25.196Z,99.90
2023-03-06T21:46:55.010Z,99.90
2023-03-06T21:49:26.149Z,99.90
2023-03-06T21:51:55.184Z,99.90
2023-03-06T21:54:23.876Z,99.90
2023-03-06T21:56:53.338Z,99.90
2023-03-06T21:59:21.828Z,99.90
2023-03-06T22:01:50.255Z,99.90
2023-03-06T22:04:20.109Z,99.90
2023-03-06T22:06:48.575Z,99.90
2023-03-06T22:09:21.708Z,99.90
2023-03-06T22:11:50.132Z,99.90
2023-03-06T22:14:18.553Z,99.90
2023-03-06T22:16:47.222Z,99.90
2023-03-06T22:19:15.714Z,99.90
2023-03-06T22:21:45.528Z,99.90
2023-03-06T22:24:13.953Z,99.90
2023-03-06T22:26:42.371Z,99.90
2023-03-06T22:29:10.816Z,99.90
2023-03-06T22:31:40.354Z,99.90
2023-03-06T22:34:09.061Z,99.90
2023-03-06T22:36:37.531Z,99.90
2023-03-06T22:39:07.445Z,99.90
2023-03-06T22:41:35.874Z,99.90
2023-03-06T22:44:04.379Z,99.90
2023-03-06T22:46:33.560Z,99.90
2023-03-06T22:49:03.317Z,99.90
2023-03-06T22:51:31.895Z,99.90
2023-03-06T22:54:00.640Z,99.90
2023-03-06T22:56:30.581Z,99.90
2023-03-06T22:58:59.311Z,99.90
2023-03-06T23:01:30.391Z,99.90
2023-03-06T23:04:00.871Z,99.90
2023-03-06T23:06:31.668Z,99.90
2023-03-06T23:09:04.140Z,99.90
2023-03-06T23:11:34.815Z,99.90
2023-03-06T23:14:05.658Z,99.90
2023-03-06T23:16:34.631Z,99.90
2023-03-06T23:19:03.048Z,99.90
2023-03-06T23:21:32.276Z,99.90
2023-03-06T23:24:00.940Z,99.90
2023-03-06T23:26:34.404Z,99.90
2023-03-06T23:29:04.324Z,99.90
2023-03-06T23:31:33.309Z,99.90
2023-03-06T23:34:04.283Z,99.90
2023-03-06T23:36:32.908Z,99.90
2023-03-06T23:39:01.332Z,99.90
2023-03-06T23:41:29.864Z,99.90
2023-03-06T23:44:00.623Z,99.90
2023-03-06T23:46:29.268Z,99.90
2023-03-06T23:48:58.033Z,99.90
2023-03-06T23:51:26.475Z,99.90
2023-03-06T23:53:58.541Z,99.90
2023-03-06T23:56:29.165Z,99.90
2023-03-06T23:58:59.043Z,99.90
